Terminal Aerodrome Forecast
Issued by NWS Louisville, KY

Home | Current Version | Previous Version | Text Only | Print | Product List | Glossary On
Versions: 1 2 3 4 5 6 7 8 9 10 11 12 13 14 15 16 17 18 19 20 21 22
000
FTUS43 KLMK 171700
TAFBWG
TAF
KBWG 171723Z 1718/1818 32005KT P6SM SCT021 BKN120
     FM180600 00000KT P6SM BKN060 PROB30 1808/1813 6SM -RAPL BKN015
     FM181300 VRB03KT P6SM BKN015=

USA.gov is the U.S. government's official web portal to all federal, state and local government web resources and services.